createdAt,value
2018-06-01T00:01:12.276Z,35.87
2018-06-01T00:03:46.184Z,31.53
2018-06-01T00:06:19.807Z,32.23
2018-06-01T00:08:53.400Z,29.23
2018-06-01T00:11:27.168Z,31.43
2018-06-01T00:14:00.887Z,31.60
2018-06-01T00:16:34.519Z,29.20
2018-06-01T00:19:08.113Z,28.03
2018-06-01T00:21:41.725Z,32.33
2018-06-01T00:24:15.555Z,32.13
2018-06-01T00:26:49.151Z,32.23
2018-06-01T00:29:22.757Z,32.80
2018-06-01T00:31:56.385Z,35.80
2018-06-01T00:34:30.078Z,31.20
2018-06-01T00:37:03.615Z,33.50
2018-06-01T00:39:37.229Z,30.30
2018-06-01T00:42:10.850Z,32.27
2018-06-01T00:44:44.596Z,26.10
2018-06-01T00:47:18.240Z,30.93
2018-06-01T00:49:51.796Z,30.87
2018-06-01T00:52:25.789Z,29.63
2018-06-01T00:55:11.044Z,31.00
2018-06-01T00:57:44.704Z,32.43
2018-06-01T01:00:18.258Z,33.73
2018-06-01T01:02:51.847Z,36.40
2018-06-01T01:05:25.345Z,36.77
2018-06-01T01:07:59.123Z,43.93
2018-06-01T01:10:32.716Z,35.63
2018-06-01T01:13:06.436Z,36.87
2018-06-01T01:15:40.124Z,37.40
2018-06-01T01:18:13.764Z,34.30
2018-06-01T01:20:47.592Z,32.40
2018-06-01T01:23:21.166Z,34.27
2018-06-01T01:25:54.677Z,29.77
2018-06-01T01:28:28.248Z,31.57
2018-06-01T01:31:01.836Z,29.93
2018-06-01T01:33:35.425Z,31.10
2018-06-01T01:36:08.960Z,32.60
2018-06-01T01:38:42.652Z,28.13
2018-06-01T01:41:16.484Z,33.80
2018-06-01T01:43:50.075Z,30.43
2018-06-01T01:46:23.697Z,29.80
2018-06-01T01:48:57.540Z,31.30
2018-06-01T01:51:31.195Z,28.87
2018-06-01T01:54:04.788Z,31.67
2018-06-01T01:56:38.478Z,31.83
2018-06-01T01:59:12.081Z,32.00
2018-06-01T02:01:45.732Z,32.60
2018-06-01T02:04:19.277Z,30.60
2018-06-01T02:06:52.815Z,29.17
2018-06-01T02:09:26.608Z,31.63
2018-06-01T02:12:00.122Z,31.47
2018-06-01T02:14:33.860Z,34.20
2018-06-01T02:17:07.416Z,33.17
2018-06-01T02:19:41.031Z,30.73
2018-06-01T02:22:14.805Z,32.13
2018-06-01T02:24:48.520Z,33.57
2018-06-01T02:27:22.133Z,31.97
2018-06-01T02:29:55.753Z,32.70
2018-06-01T02:32:29.317Z,32.93
2018-06-01T02:35:03.007Z,33.93
2018-06-01T02:37:36.818Z,32.40
2018-06-01T02:40:10.583Z,31.67
2018-06-01T02:42:44.141Z,32.57
2018-06-01T02:45:17.756Z,37.10
2018-06-01T02:47:51.276Z,34.97
2018-06-01T02:50:25.115Z,33.23
2018-06-01T02:52:58.773Z,32.93
2018-06-01T02:55:32.322Z,32.87
2018-06-01T02:58:06.160Z,36.47
2018-06-01T03:00:39.948Z,34.50
2018-06-01T03:03:13.627Z,36.50
2018-06-01T03:05:47.400Z,36.43
2018-06-01T03:08:20.971Z,36.33
2018-06-01T03:10:54.560Z,36.57
2018-06-01T03:13:28.302Z,35.83
2018-06-01T03:16:01.948Z,36.30
2018-06-01T03:18:35.740Z,43.67
2018-06-01T03:21:10.162Z,41.40
2018-06-01T03:23:43.830Z,38.70
2018-06-01T03:26:17.628Z,37.47
2018-06-01T03:28:51.400Z,35.23
2018-06-01T03:31:25.009Z,41.00
2018-06-01T03:33:58.665Z,37.60
2018-06-01T03:36:32.200Z,33.23
2018-06-01T03:39:05.868Z,34.07
2018-06-01T03:41:39.456Z,34.77
2018-06-01T03:44:13.204Z,36.00
2018-06-01T03:46:46.909Z,37.07
2018-06-01T03:49:20.697Z,36.60
2018-06-01T03:51:54.558Z,33.37
2018-06-01T03:54:28.325Z,35.03
2018-06-01T03:57:02.117Z,35.23
2018-06-01T03:59:35.853Z,33.73
2018-06-01T04:02:09.413Z,32.10
2018-06-01T04:04:43.193Z,34.60
2018-06-01T04:07:17.030Z,30.90
2018-06-01T04:09:50.715Z,31.70
2018-06-01T04:12:24.449Z,30.67
2018-06-01T04:14:58.161Z,42.00
2018-06-01T04:17:31.908Z,50.77
2018-06-01T04:20:05.617Z,44.37
2018-06-01T04:22:39.222Z,50.80
2018-06-01T04:25:13.000Z,45.03
2018-06-01T04:27:46.761Z,51.00
2018-06-01T04:30:20.454Z,48.27
2018-06-01T04:32:54.103Z,27.10
2018-06-01T04:35:27.879Z,17.70
2018-06-01T04:38:01.532Z,33.17
2018-06-01T04:40:35.177Z,16.50
2018-06-01T04:43:08.929Z,47.87
2018-06-01T04:45:42.661Z,39.80
2018-06-01T04:48:16.385Z,100.97
2018-06-01T04:50:50.017Z,41.03
2018-06-01T04:53:23.741Z,27.00
2018-06-01T04:55:57.527Z,22.57
2018-06-01T04:58:31.192Z,27.20
2018-06-01T05:01:04.797Z,26.30
2018-06-01T05:03:38.522Z,35.20
2018-06-01T05:06:12.449Z,38.47
2018-06-01T05:08:46.211Z,63.00
2018-06-01T05:11:19.961Z,96.60
2018-06-01T05:13:53.870Z,80.73
2018-06-01T05:16:27.590Z,131.47
2018-06-01T05:19:01.431Z,104.03
2018-06-01T05:21:35.109Z,157.97
2018-06-01T05:24:08.740Z,110.80
2018-06-01T05:26:42.497Z,171.90
2018-06-01T05:29:16.272Z,101.80
2018-06-01T05:31:49.984Z,119.47
2018-06-01T05:34:23.767Z,136.47
2018-06-01T05:36:57.553Z,150.63
2018-06-01T05:39:31.289Z,186.97
2018-06-01T05:42:05.107Z,193.53
2018-06-01T05:44:38.769Z,169.33
2018-06-01T05:47:12.438Z,133.27
2018-06-01T05:49:46.145Z,149.37
2018-06-01T05:52:19.796Z,192.87
2018-06-01T05:54:53.414Z,148.40
2018-06-01T05:57:27.025Z,293.87
2018-06-01T06:00:00.658Z,202.37
2018-06-01T06:02:34.434Z,223.63
2018-06-01T06:05:08.196Z,256.13
2018-06-01T06:07:41.798Z,280.60
2018-06-01T06:10:15.414Z,217.87
2018-06-01T06:12:49.147Z,197.23
2018-06-01T06:15:22.893Z,238.53
2018-06-01T06:17:56.540Z,200.67
2018-06-01T06:20:30.366Z,193.10
2018-06-01T06:23:03.996Z,177.00
2018-06-01T06:25:38.199Z,243.70
2018-06-01T06:28:11.985Z,239.70
2018-06-01T06:30:45.617Z,204.33
2018-06-01T06:33:19.380Z,189.67
2018-06-01T06:35:53.111Z,172.60
2018-06-01T06:38:26.898Z,167.90
2018-06-01T06:41:00.627Z,152.20
2018-06-01T06:43:34.476Z,156.93
2018-06-01T06:46:08.287Z,140.17
2018-06-01T06:48:41.964Z,129.23
2018-06-01T06:51:15.733Z,145.93
2018-06-01T06:53:49.452Z,151.90
2018-06-01T06:56:23.139Z,149.13
2018-06-01T06:58:56.885Z,154.53
2018-06-01T07:01:30.552Z,177.47
2018-06-01T07:04:04.272Z,142.20
2018-06-01T07:06:38.143Z,139.20
2018-06-01T07:09:11.853Z,134.87
2018-06-01T07:11:45.598Z,130.67
2018-06-01T07:14:19.340Z,120.87
2018-06-01T07:16:53.074Z,109.67
2018-06-01T07:19:26.825Z,138.37
2018-06-01T07:22:00.461Z,106.07
2018-06-01T07:24:34.016Z,92.23
2018-06-01T07:27:07.800Z,93.47
2018-06-01T07:29:41.527Z,95.80
2018-06-01T07:32:15.288Z,107.93
2018-06-01T07:34:49.012Z,114.57
2018-06-01T07:37:22.802Z,90.20
2018-06-01T07:39:56.420Z,89.27
2018-06-01T07:42:30.117Z,133.70
2018-06-01T07:45:04.049Z,104.10
2018-06-01T07:47:37.640Z,80.03
2018-06-01T07:50:11.389Z,100.03
2018-06-01T07:52:45.009Z,118.50
2018-06-01T07:55:18.735Z,124.97
2018-06-01T07:57:52.434Z,134.57
2018-06-01T08:00:26.213Z,120.67
2018-06-01T08:02:59.909Z,116.53
2018-06-01T08:05:33.632Z,102.97
2018-06-01T08:08:07.629Z,115.47
2018-06-01T08:10:41.271Z,113.47
2018-06-01T08:13:15.712Z,97.27
2018-06-01T08:15:50.241Z,164.17
2018-06-01T08:18:23.878Z,106.80
2018-06-01T08:20:57.545Z,115.90
2018-06-01T08:23:31.248Z,164.53
2018-06-01T08:26:04.852Z,300.60
2018-06-01T08:28:38.462Z,141.37
2018-06-01T08:31:12.089Z,93.10
2018-06-01T08:33:45.818Z,96.03
2018-06-01T08:36:19.557Z,98.77
2018-06-01T08:38:53.141Z,150.40
2018-06-01T08:41:26.840Z,149.63
2018-06-01T08:44:00.658Z,120.80
2018-06-01T08:46:34.306Z,133.43
2018-06-01T08:49:08.001Z,123.60
2018-06-01T08:51:41.768Z,168.57
2018-06-01T08:54:15.366Z,174.53
2018-06-01T08:56:49.098Z,161.03
2018-06-01T08:59:22.696Z,125.03
2018-06-01T09:01:56.381Z,266.53
2018-06-01T09:04:30.002Z,129.43
2018-06-01T09:07:03.600Z,212.27
2018-06-01T09:09:37.195Z,111.20
2018-06-01T09:12:10.924Z,90.73
2018-06-01T09:14:44.504Z,113.87
2018-06-01T09:17:18.227Z,75.33
2018-06-01T09:19:52.648Z,69.73
2018-06-01T09:22:26.329Z,81.87
2018-06-01T09:24:59.942Z,87.17
2018-06-01T09:27:33.705Z,76.77
2018-06-01T09:30:07.536Z,69.20
2018-06-01T09:32:41.336Z,72.83
2018-06-01T09:35:14.993Z,79.17
2018-06-01T09:37:48.740Z,118.63
2018-06-01T09:40:22.310Z,121.60
2018-06-01T09:42:55.965Z,142.77
2018-06-01T09:45:29.744Z,112.87
2018-06-01T09:48:03.299Z,103.90
2018-06-01T09:50:36.893Z,135.60
2018-06-01T09:53:10.509Z,141.83
2018-06-01T09:55:44.048Z,141.77
2018-06-01T09:58:17.628Z,106.27
2018-06-01T10:00:56.976Z,119.93
2018-06-01T10:03:30.644Z,89.20
2018-06-01T10:06:04.424Z,103.13
2018-06-01T10:08:37.938Z,137.43
2018-06-01T10:11:11.715Z,98.23
2018-06-01T10:13:45.389Z,70.37
2018-06-01T10:16:18.929Z,93.67
2018-06-01T10:18:52.747Z,72.90
2018-06-01T10:21:26.473Z,70.80
2018-06-01T10:24:00.021Z,81.90
2018-06-01T10:26:33.719Z,81.23
2018-06-01T10:29:07.212Z,82.70
2018-06-01T10:31:40.749Z,78.20
2018-06-01T10:34:14.318Z,77.67
2018-06-01T10:36:47.989Z,86.13
2018-06-01T10:39:21.624Z,140.93
2018-06-01T10:41:55.269Z,89.13
2018-06-01T10:44:28.954Z,76.77
2018-06-01T10:47:02.641Z,82.73
2018-06-01T10:49:36.303Z,78.07
2018-06-01T10:52:09.871Z,62.33
2018-06-01T10:54:43.623Z,57.13
2018-06-01T10:57:17.344Z,58.77
2018-06-01T10:59:51.049Z,56.20
2018-06-01T11:02:24.772Z,56.40
2018-06-01T11:04:58.309Z,50.37
2018-06-01T11:07:32.072Z,49.43
2018-06-01T11:10:05.663Z,58.03
2018-06-01T11:12:39.328Z,52.93
2018-06-01T11:15:13.880Z,60.83
2018-06-01T11:17:47.467Z,56.67
2018-06-01T11:20:21.033Z,53.50
2018-06-01T11:22:54.564Z,53.97
2018-06-01T11:25:28.108Z,53.17
2018-06-01T11:28:01.704Z,47.80
2018-06-01T11:30:35.346Z,52.17
2018-06-01T11:33:09.164Z,54.37
2018-06-01T11:35:42.705Z,50.73
2018-06-01T11:38:16.255Z,52.33
2018-06-01T11:40:49.955Z,52.50
2018-06-01T11:43:23.539Z,59.43
2018-06-01T11:45:57.067Z,52.90
2018-06-01T11:48:30.903Z,56.40
2018-06-01T11:51:04.513Z,62.03
2018-06-01T11:53:38.296Z,56.73
2018-06-01T11:56:11.878Z,60.83
2018-06-01T11:58:45.660Z,54.97
2018-06-01T12:01:19.208Z,65.80
2018-06-01T12:03:52.993Z,70.27
2018-06-01T12:06:26.745Z,78.43
2018-06-01T12:09:00.292Z,84.00
2018-06-01T12:11:33.966Z,100.37
2018-06-01T12:14:07.656Z,89.93
2018-06-01T12:16:41.194Z,107.07
2018-06-01T12:19:14.790Z,102.20
2018-06-01T12:21:48.460Z,92.50
2018-06-01T12:24:21.969Z,106.83
2018-06-01T12:26:55.633Z,109.47
2018-06-01T12:29:29.187Z,133.20
2018-06-01T12:32:02.927Z,132.33
2018-06-01T12:34:36.640Z,154.43
2018-06-01T12:37:10.569Z,134.53
2018-06-01T12:39:44.080Z,130.60
2018-06-01T12:42:17.687Z,151.50
2018-06-01T12:44:51.245Z,161.47
2018-06-01T12:47:24.776Z,214.83
2018-06-01T12:49:58.388Z,206.50
2018-06-01T12:52:32.213Z,268.23
2018-06-01T12:55:05.881Z,244.40
2018-06-01T12:57:39.524Z,280.80
2018-06-01T13:00:13.061Z,190.90
2018-06-01T13:02:46.778Z,211.57
2018-06-01T13:05:20.323Z,218.33
2018-06-01T13:07:54.058Z,172.67
2018-06-01T13:10:27.816Z,175.33
2018-06-01T13:13:01.474Z,187.20
2018-06-01T13:15:35.072Z,182.67
2018-06-01T13:18:08.669Z,167.53
2018-06-01T13:20:42.664Z,158.57
2018-06-01T13:23:16.152Z,168.87
2018-06-01T13:25:50.208Z,215.77
2018-06-01T13:28:23.898Z,156.00
2018-06-01T13:30:57.443Z,115.40
2018-06-01T13:33:31.131Z,80.97
2018-06-01T13:36:04.679Z,244.97
2018-06-01T13:38:38.341Z,156.30
2018-06-01T13:41:11.921Z,115.10
2018-06-01T13:43:45.580Z,73.63
2018-06-01T13:46:19.213Z,51.87
2018-06-01T13:48:52.978Z,63.07
2018-06-01T13:51:26.639Z,99.10
2018-06-01T13:54:00.286Z,98.53
2018-06-01T13:56:33.873Z,122.30
2018-06-01T13:59:07.610Z,197.73
2018-06-01T14:01:41.224Z,256.13
2018-06-01T14:04:14.945Z,313.23
2018-06-01T14:06:48.691Z,503.07
2018-06-01T14:09:22.384Z,524.27
2018-06-01T14:11:55.927Z,454.57
2018-06-01T14:14:29.467Z,424.17
2018-06-01T14:17:03.024Z,596.50
2018-06-01T14:19:36.765Z,421.07
2018-06-01T14:22:10.511Z,362.23
2018-06-01T14:24:44.196Z,382.83
2018-06-01T14:27:17.867Z,311.20
2018-06-01T14:29:51.490Z,344.87
2018-06-01T14:32:25.008Z,394.47
2018-06-01T14:34:58.660Z,378.00
2018-06-01T14:37:32.364Z,309.43
2018-06-01T14:40:06.153Z,336.20
2018-06-01T14:42:39.931Z,387.57
2018-06-01T14:45:13.484Z,305.90
2018-06-01T14:47:47.239Z,395.30
2018-06-01T14:50:20.792Z,390.73
2018-06-01T14:52:54.418Z,289.37
2018-06-01T14:55:28.171Z,329.67
2018-06-01T14:58:01.804Z,276.20
2018-06-01T15:00:35.458Z,471.23
2018-06-01T15:03:09.197Z,423.43
2018-06-01T15:05:42.733Z,402.13
2018-06-01T15:08:16.339Z,422.33
2018-06-01T15:10:50.027Z,346.27
2018-06-01T15:13:23.583Z,486.23
2018-06-01T15:15:57.481Z,471.70
2018-06-01T15:18:31.080Z,394.90
2018-06-01T15:21:04.689Z,373.97
2018-06-01T15:23:38.340Z,464.47
2018-06-01T15:26:11.892Z,445.37
2018-06-01T15:28:45.584Z,466.53
2018-06-01T15:31:19.337Z,407.50
2018-06-01T15:33:52.979Z,424.77
2018-06-01T15:36:26.821Z,593.80
2018-06-01T15:39:00.502Z,567.93
2018-06-01T15:41:34.065Z,380.80
2018-06-01T15:44:07.847Z,473.90
2018-06-01T15:46:41.567Z,424.43
2018-06-01T15:49:15.135Z,518.17
2018-06-01T15:51:48.688Z,405.17
2018-06-01T15:54:22.449Z,382.53
2018-06-01T15:56:56.247Z,379.63
2018-06-01T15:59:29.814Z,377.03
2018-06-01T16:02:03.500Z,426.23
2018-06-01T16:04:37.033Z,407.90
2018-06-01T16:07:10.857Z,394.10
2018-06-01T16:09:44.625Z,408.13
2018-06-01T16:12:18.440Z,392.77
2018-06-01T16:14:51.999Z,401.30
2018-06-01T16:17:25.713Z,543.57
2018-06-01T16:19:59.441Z,432.50
2018-06-01T16:22:33.052Z,459.97
2018-06-01T16:25:06.609Z,377.90
2018-06-01T16:27:40.204Z,570.23
2018-06-01T16:30:13.949Z,415.03
2018-06-01T16:32:47.556Z,345.23
2018-06-01T16:35:21.494Z,320.70
2018-06-01T16:37:55.222Z,482.10
2018-06-01T16:40:28.848Z,337.70
2018-06-01T16:43:02.672Z,415.83
2018-06-01T16:45:36.216Z,387.93
2018-06-01T16:48:09.760Z,485.27
2018-06-01T16:50:43.615Z,396.67
2018-06-01T16:53:17.188Z,289.87
2018-06-01T16:55:50.841Z,299.40
2018-06-01T16:58:24.488Z,284.50
2018-06-01T17:00:58.029Z,340.53
2018-06-01T17:03:31.833Z,336.17
2018-06-01T17:06:05.465Z,310.03
2018-06-01T17:08:39.192Z,229.17
2018-06-01T17:11:12.756Z,336.17
2018-06-01T17:13:46.414Z,234.53
2018-06-01T17:16:20.093Z,299.63
2018-06-01T17:18:53.749Z,284.23
2018-06-01T17:21:27.548Z,280.70
2018-06-01T17:24:01.099Z,257.83
2018-06-01T17:26:34.651Z,334.33
2018-06-01T17:29:08.191Z,238.00
2018-06-01T17:31:41.832Z,298.60
2018-06-01T17:34:15.669Z,274.63
2018-06-01T17:36:49.366Z,304.57
2018-06-01T17:39:23.044Z,234.00
2018-06-01T17:41:56.576Z,263.47
2018-06-01T17:44:30.264Z,263.00
2018-06-01T17:47:03.854Z,199.03
2018-06-01T17:49:37.657Z,211.07
2018-06-01T17:52:11.379Z,167.47
2018-06-01T17:54:45.040Z,181.33
2018-06-01T17:57:18.572Z,220.70
2018-06-01T17:59:52.077Z,185.17
2018-06-01T18:02:25.636Z,209.93
2018-06-01T18:04:59.218Z,211.67
2018-06-01T18:07:32.999Z,143.07
2018-06-01T18:10:06.552Z,185.27
2018-06-01T18:12:40.160Z,142.47
2018-06-01T18:15:13.726Z,172.90
2018-06-01T18:17:47.337Z,168.30
2018-06-01T18:20:21.132Z,195.87
2018-06-01T18:22:54.691Z,137.00
2018-06-01T18:25:28.268Z,171.30
2018-06-01T18:28:01.813Z,153.30
2018-06-01T18:30:35.569Z,149.60
2018-06-01T18:33:09.172Z,131.17
2018-06-01T18:35:42.717Z,160.80
2018-06-01T18:38:16.383Z,136.47
2018-06-01T18:40:49.999Z,108.23
2018-06-01T18:43:23.560Z,112.57
2018-06-01T18:45:57.243Z,106.20
2018-06-01T18:48:30.823Z,115.40
2018-06-01T18:51:04.578Z,114.37
2018-06-01T18:53:38.285Z,148.47
2018-06-01T18:56:12.042Z,124.53
2018-06-01T18:58:45.596Z,136.40
2018-06-01T19:01:19.194Z,166.33
2018-06-01T19:03:52.865Z,141.00
2018-06-01T19:06:26.616Z,186.53
2018-06-01T19:09:00.273Z,184.43
2018-06-01T19:11:33.891Z,166.47
2018-06-01T19:14:07.744Z,217.07
2018-06-01T19:16:41.295Z,210.23
2018-06-01T19:19:15.063Z,144.57
2018-06-01T19:21:48.813Z,254.33
2018-06-01T19:24:22.556Z,154.73
2018-06-01T19:26:56.092Z,165.77
2018-06-01T19:29:29.661Z,205.27
2018-06-01T19:32:03.416Z,170.40
2018-06-01T19:34:37.201Z,196.23
2018-06-01T19:37:10.977Z,208.80
2018-06-01T19:39:44.552Z,247.80
2018-06-01T19:42:18.154Z,255.20
2018-06-01T19:44:51.682Z,213.37
2018-06-01T19:47:25.239Z,233.97
2018-06-01T19:49:58.888Z,204.90
2018-06-01T19:52:32.545Z,180.87
2018-06-01T19:55:06.187Z,158.23
2018-06-01T19:57:39.790Z,194.40
2018-06-01T20:00:13.576Z,203.77
2018-06-01T20:02:47.280Z,285.10
2018-06-01T20:05:20.814Z,241.40
2018-06-01T20:07:54.407Z,195.90
2018-06-01T20:10:27.937Z,218.13
2018-06-01T20:13:01.557Z,206.70
2018-06-01T20:15:35.199Z,206.43
2018-06-01T20:18:08.867Z,241.47
2018-06-01T20:20:42.556Z,239.23
2018-06-01T20:23:16.377Z,204.17
2018-06-01T20:25:50.844Z,199.30
2018-06-01T20:28:24.450Z,276.40
2018-06-01T20:30:58.235Z,199.77
2018-06-01T20:33:32.034Z,216.20
2018-06-01T20:36:05.849Z,262.23
2018-06-01T20:38:39.400Z,244.53
2018-06-01T20:41:13.058Z,243.43
2018-06-01T20:43:46.731Z,237.70
2018-06-01T20:46:20.276Z,223.20
2018-06-01T20:48:53.832Z,293.83
2018-06-01T20:51:27.457Z,295.87
2018-06-01T20:54:00.973Z,312.17
2018-06-01T20:56:34.520Z,267.90
2018-06-01T20:59:08.168Z,238.40
2018-06-01T21:01:41.847Z,264.60
2018-06-01T21:04:15.628Z,316.77
2018-06-01T21:06:49.819Z,203.50
2018-06-01T21:09:23.432Z,195.63
2018-06-01T21:11:57.059Z,223.80
2018-06-01T21:14:30.616Z,253.50
2018-06-01T21:17:04.256Z,279.10
2018-06-01T21:19:37.935Z,202.40
2018-06-01T21:22:11.690Z,267.23
2018-06-01T21:24:45.261Z,389.03
2018-06-01T21:27:18.981Z,231.63
2018-06-01T21:29:52.622Z,207.43
2018-06-01T21:32:26.195Z,237.77
2018-06-01T21:34:59.849Z,248.33
2018-06-01T21:37:33.379Z,290.00
2018-06-01T21:40:07.028Z,260.47
2018-06-01T21:42:40.612Z,256.53
2018-06-01T21:45:14.270Z,276.00
2018-06-01T21:47:47.792Z,342.87
2018-06-01T21:50:21.415Z,371.27
2018-06-01T21:52:55.403Z,303.10
2018-06-01T21:55:29.168Z,246.07
2018-06-01T21:58:02.738Z,249.67
2018-06-01T22:00:36.324Z,521.27
2018-06-01T22:03:10.224Z,359.43
2018-06-01T22:05:44.664Z,364.93
2018-06-01T22:08:18.411Z,307.17
2018-06-01T22:10:51.960Z,387.50
2018-06-01T22:13:25.485Z,377.23
2018-06-01T22:15:59.215Z,410.50
2018-06-01T22:18:32.705Z,411.90
2018-06-01T22:21:06.275Z,280.03
2018-06-01T22:23:39.859Z,429.40
2018-06-01T22:26:13.388Z,388.17
2018-06-01T22:28:46.964Z,392.67
2018-06-01T22:31:20.488Z,387.17
2018-06-01T22:33:54.034Z,386.83
2018-06-01T22:36:27.629Z,413.97
2018-06-01T22:39:01.429Z,372.77
2018-06-01T22:41:34.930Z,368.80
2018-06-01T22:44:08.484Z,363.13
2018-06-01T22:46:42.132Z,355.33
2018-06-01T22:49:15.691Z,423.47
2018-06-01T22:51:49.363Z,309.47
2018-06-01T22:54:22.857Z,333.20
2018-06-01T22:56:56.433Z,342.37
2018-06-01T22:59:29.928Z,481.80
2018-06-01T23:02:03.452Z,382.57
2018-06-01T23:04:37.116Z,419.60
2018-06-01T23:07:10.861Z,383.03
2018-06-01T23:09:44.435Z,397.17
2018-06-01T23:12:17.959Z,351.77
2018-06-01T23:14:51.545Z,375.87
2018-06-01T23:17:25.064Z,340.30
2018-06-01T23:19:58.661Z,448.47
2018-06-01T23:22:32.349Z,492.60
2018-06-01T23:25:06.043Z,459.10
2018-06-01T23:27:39.831Z,366.70
2018-06-01T23:30:13.489Z,352.27
2018-06-01T23:32:47.008Z,321.67
2018-06-01T23:35:20.920Z,360.03
2018-06-01T23:37:54.701Z,350.33
2018-06-01T23:40:28.425Z,362.83
2018-06-01T23:43:01.956Z,404.83
2018-06-01T23:45:35.679Z,327.57
2018-06-01T23:48:09.255Z,336.20
2018-06-01T23:50:42.888Z,372.53
2018-06-01T23:53:16.748Z,333.80
2018-06-01T23:55:51.107Z,398.57
2018-06-01T23:58:24.908Z,381.03
